sensor_id;sensor_type;location;lat;lon;timestamp;pressure;altitude;pressure_sealevel;temperature;humidity
71642;BME280;60657;50.122;14.468;2022-12-24T00:01:57;97151.91796028746;;;9.744411383230336;88.99885557335774
71642;BME280;60657;50.122;14.468;2022-12-24T00:05:09;97149.37913459573;;;9.797817959868773;89.03700312809949
71642;BME280;60657;50.122;14.468;2022-12-24T00:08:21;97149.35313942222;;;9.829861905851836;88.98741130693523
71642;BME280;60657;50.122;14.468;2022-12-24T00:11:34;97155.86414487552;;;9.864576180666816;89.07133592736706
71642;BME280;60657;50.122;14.468;2022-12-24T00:14:46;97156.68456824988;;;9.909971770809491;89.14381628137636
71642;BME280;60657;50.122;14.468;2022-12-24T00:17:59;97155.8114149586;;;9.901960784313722;88.84245059891661
71642;BME280;60657;50.122;14.468;2022-12-24T00:21:11;97172.32607290978;;;9.904631113145648;88.8863202868696
71642;BME280;60657;50.122;14.468;2022-12-24T00:24:24;97164.0948741991;;;9.91264209964141;88.92637521934844
71642;BME280;60657;50.122;14.468;2022-12-24T00:27:36;97159.91348016632;;;9.91264209964141;88.83482108796827
71642;BME280;60657;50.122;14.468;2022-12-24T00:30:48;97168.96490499868;;;9.982070649271378;89.40703440909438
71642;BME280;60657;50.122;14.468;2022-12-24T00:34:00;97170.55263588273;;;9.982070649271378;89.38605325398642
71642;BME280;60657;50.122;14.468;2022-12-24T00:37:13;97176.98154864003;;;10.144960708018615;89.27733272297246
71642;BME280;60657;50.122;14.468;2022-12-24T00:40:25;97174.3833162111;;;10.179674982833603;89.14953841458762
71642;BME280;60657;50.122;14.468;2022-12-24T00:43:37;97176.87208687971;;;10.185015640497447;88.9454489967193
71642;BME280;60657;50.122;14.468;2022-12-24T00:46:50;97188.33051573907;;;10.281147478446634;88.89776455329213
71642;BME280;60657;50.122;14.468;2022-12-24T00:50:02;97179.9586671382;;;10.286488136110478;88.68604562447547
71642;BME280;60657;50.122;14.468;2022-12-24T00:53:17;97185.84140354591;;;10.297169451438165;88.63263904783703
71642;BME280;60657;50.122;14.468;2022-12-24T00:56:30;97191.61236719436;;;10.273136491950865;88.61928740367742
71642;BME280;60657;50.122;14.468;2022-12-24T00:59:42;97193.19754252843;;;10.331883726253146;88.52773327229724
71642;BME280;60657;50.122;14.468;2022-12-24T01:02:54;97203.04333097886;;;10.40398260471504;88.45525291828794
71642;BME280;60657;50.122;14.468;2022-12-24T01:06:08;97194.78231921907;;;10.39597161821927;88.2988479438468
71642;BME280;60657;50.122;14.468;2022-12-24T01:09:23;97197.18713797198;;;10.42267490653849;88.24544136720836
71642;BME280;60657;50.122;14.468;2022-12-24T01:12:36;97199.59154061052;;;10.43869687953002;87.82200350957504
71642;BME280;60657;50.122;14.468;2022-12-24T01:15:48;97219.42587404947;;;10.542839703974977;87.79148546578165
71642;BME280;60657;50.122;14.468;2022-12-24T01:19:01;97223.41452990843;;;10.614938582436864;87.31654840924696
71642;BME280;60657;50.122;14.468;2022-12-24T01:22:14;97220.01687747112;;;10.644312199588008;87.30319676508736
71642;BME280;60657;50.122;14.468;2022-12-24T01:25:27;97228.36666077697;;;10.646982528419926;87.26886396581979
71642;BME280;60657;50.122;14.468;2022-12-24T01:28:39;97238.29998869708;;;10.644312199588008;86.85687037460899
71642;BME280;60657;50.122;14.468;2022-12-24T01:31:52;97237.36447688569;;;10.745784695201039;86.61463340199893
71642;BME280;60657;50.122;14.468;2022-12-24T01:35:04;97239.71000970174;;;10.772487983520257;86.2503242542153
71642;BME280;60657;50.122;14.468;2022-12-24T01:38:17;97243.75424494126;;;10.825894560158694;86.3247119859617
71642;BME280;60657;50.122;14.468;2022-12-24T01:41:30;97257.11838942386;;;10.79652094300755;86.20645456626231
71642;BME280;60657;50.122;14.468;2022-12-24T01:44:46;97263.65525891344;;;10.84725719081407;85.65331502250706
71642;BME280;60657;50.122;14.468;2022-12-24T01:48:02;97262.74689123244;;;10.8632791638056;85.28519111924926
71642;BME280;60657;50.122;14.468;2022-12-24T01:51:16;97271.01290483086;;;10.831235217822538;84.67673762111849
71642;BME280;60657;50.122;14.468;2022-12-24T01:54:43;97279.36644905165;;;10.8632791638056;84.35820553902495
71642;BME280;60657;50.122;14.468;2022-12-24T01:58:01;97275.87879964584;;;10.916685740444038;84.18081940947586
71642;BME280;60657;50.122;14.468;2022-12-24T02:01:17;97288.33784399036;;;10.897993438620581;83.96528572518501
71642;BME280;60657;50.122;14.468;2022-12-24T02:04:33;97279.2500926117;;;10.951400015259019;83.62005035477226
71642;BME280;60657;50.122;14.468;2022-12-24T02:07:53;97280.9791823965;;;10.900663767452507;83.22903791866942
71642;BME280;60657;50.122;14.468;2022-12-24T02:11:09;97288.36698975887;;;10.951400015259019;83.03830014496071
71642;BME280;60657;50.122;14.468;2022-12-24T02:14:24;97295.8422664746;;;10.940718699931331;82.40314335851072
71642;BME280;60657;50.122;14.468;2022-12-24T02:17:41;97290.88774808761;;;10.897993438620581;81.89959563591974
71642;BME280;60657;50.122;14.468;2022-12-24T02:21:58;97287.60412380692;;;10.964751659418631;81.78324559395743
71642;BME280;60657;50.122;14.468;2022-12-24T02:25:25;97294.17143199299;;;10.96742198825055;82.27916380560006
71642;BME280;60657;50.122;14.468;2022-12-24T02:29:02;97296.72091469444;;;10.959411001754788;81.40177004654002
71642;BME280;60657;50.122;14.468;2022-12-24T02:32:42;97312.46356914254;;;10.930037384603644;81.40749217975127
71642;BME280;60657;50.122;14.468;2022-12-24T02:36:08;97314.27536024625;;;10.873960479133288;81.56198977645533
71642;BME280;60657;50.122;14.468;2022-12-24T02:39:33;97312.63307877221;;;10.857938506141757;81.27588311589227
71642;BME280;60657;50.122;14.468;2022-12-24T02:42:54;97321.86037195034;;;10.793850614175632;81.33119707026779
71642;BME280;60657;50.122;14.468;2022-12-24T02:46:14;97318.60285254386;;;10.756466010528726;81.21866178377967
71642;BME280;60657;50.122;14.468;2022-12-24T02:49:33;97321.91519008768;;;10.764476997024488;81.1538109407187
71642;BME280;60657;50.122;14.468;2022-12-24T02:52:46;97324.51466760701;;;10.724422064545664;81.17669947356374
71642;BME280;60657;50.122;14.468;2022-12-24T02:56:04;97336.12096289718;;;10.735103379873351;81.24155031662471
71642;BME280;60657;50.122;14.468;2022-12-24T02:59:33;97332.04060842507;;;10.67635614557107;81.31212329289693
71642;BME280;60657;50.122;14.468;2022-12-24T03:03:10;97338.82232852619;;;10.612268253604945;81.41512169069962
71642;BME280;60657;50.122;14.468;2022-12-24T03:06:38;97339.6697564875;;;10.553521019302664;81.40749217975127
71642;BME280;60657;50.122;14.468;2022-12-24T03:10:04;97345.57457217513;;;10.550850690470739;81.35027084763867
71642;BME280;60657;50.122;14.468;2022-12-24T03:13:31;97343.05883052459;;;10.556191348134583;81.55436026550699
71642;BME280;60657;50.122;14.468;2022-12-24T03:16:44;97354.66318018413;;;10.54818036163882;81.39604791332876
71642;BME280;60657;50.122;14.468;2022-12-24T03:19:58;97358.9223887284;;;10.497444113832302;81.63256275272755
71642;BME280;60657;50.122;14.468;2022-12-24T03:23:10;97368.93179973037;;;10.48142214084077;81.78324559395743
71642;BME280;60657;50.122;14.468;2022-12-24T03:26:27;97372.31653638426;;;10.401312275883114;81.83665217059587
71642;BME280;60657;50.122;14.468;2022-12-24T03:29:43;97369.89908818682;;;10.393301289387352;81.95490959029526
71642;BME280;60657;50.122;14.468;2022-12-24T03:32:57;97363.1054812051;;;10.492103456168458;81.89196612497139
71642;BME280;60657;50.122;14.468;2022-12-24T03:36:09;97365.6932913455;;;10.366598001068134;81.95490959029526
71642;BME280;60657;50.122;14.468;2022-12-24T03:39:22;97359.04580477669;;;10.43869687953002;81.74128328374151
71642;BME280;60657;50.122;14.468;2022-12-24T03:42:34;97376.52217653296;;;10.387960631723509;82.02929732204166
71642;BME280;60657;50.122;14.468;2022-12-24T03:45:47;97374.00852220398;;;10.40398260471504;81.93965056839856
71642;BME280;60657;50.122;14.468;2022-12-24T03:49:00;97378.91583715979;;;10.457389181353477;81.62111848630502
71642;BME280;60657;50.122;14.468;2022-12-24T03:52:12;97375.55543467727;;;10.537499046311133;81.25490196078431
71642;BME280;60657;50.122;14.468;2022-12-24T03:55:25;97384.69348918623;;;10.449378194857708;81.04127565423056
71642;BME280;60657;50.122;14.468;2022-12-24T03:58:37;97391.36537067014;;;10.430685893034259;81.24536507209888
71642;BME280;60657;50.122;14.468;2022-12-24T04:01:50;97386.38555085013;;;10.478751812008852;80.82192721446555
71642;BME280;60657;50.122;14.468;2022-12-24T04:05:03;97387.15934072583;;;10.478751812008852;80.45380331120775
71642;BME280;60657;50.122;14.468;2022-12-24T04:08:16;97392.9131254186;;;10.521477073319602;80.54917219806211
71642;BME280;60657;50.122;14.468;2022-12-24T04:11:28;97405.36408508266;;;10.521477073319602;80.24208438239108
71642;BME280;60657;50.122;14.468;2022-12-24T04:14:40;97420.4222176724;;;10.470740825513083;80.12573434042878
71642;BME280;60657;50.122;14.468;2022-12-24T04:17:53;97419.5534800475;;;10.476081483176927;79.91210803387503
71642;BME280;60657;50.122;14.468;2022-12-24T04:21:06;97428.71429199431;;;10.516136415655758;79.9750514991989
71642;BME280;60657;50.122;14.468;2022-12-24T04:24:19;97422.95818514789;;;10.449378194857708;79.94644083314259
71642;BME280;60657;50.122;14.468;2022-12-24T04:27:32;97425.40205693206;;;10.43869687953002;79.51155870908674
71642;BME280;60657;50.122;14.468;2022-12-24T04:30:44;97432.94007479047;;;10.411993591210802;79.72709239337759
71642;BME280;60657;50.122;14.468;2022-12-24T04:33:59;97431.24995291166;;;10.387960631723509;79.50202182040131
71642;BME280;60657;50.122;14.468;2022-12-24T04:37:11;97428.00587605238;;;10.305180437933927;79.42381933318075
71642;BME280;60657;50.122;14.468;2022-12-24T04:40:24;97431.27268260972;;;10.457389181353477;78.89356832227054
71642;BME280;60657;50.122;14.468;2022-12-24T04:43:36;97437.87440854238;;;10.428015564202333;78.9870298313878
71642;BME280;60657;50.122;14.468;2022-12-24T04:46:49;97454.45874122402;;;10.457389181353477;78.91264209964142
71642;BME280;60657;50.122;14.468;2022-12-24T04:50:01;97456.19255550834;;;10.409323262378884;78.80010681315328
71642;BME280;60657;50.122;14.468;2022-12-24T04:53:14;97467.84025039108;;;10.40398260471504;78.74288548104066
71642;BME280;60657;50.122;14.468;2022-12-24T04:56:28;97464.52792932752;;;10.355916685740446;78.80010681315328
71642;BME280;60657;50.122;14.468;2022-12-24T04:59:42;97465.35058595927;;;10.401312275883114;78.60555428397039
71642;BME280;60657;50.122;14.468;2022-12-24T05:02:55;97478.60024409657;;;10.387960631723509;78.5178149080644
71642;BME280;60657;50.122;14.468;2022-12-24T05:06:09;97488.5592723961;;;10.436026550698102;78.55405508506905
71642;BME280;60657;50.122;14.468;2022-12-24T05:09:24;97488.53797418645;;;10.452048523689633;78.46440833142596
71642;BME280;60657;50.122;14.468;2022-12-24T05:12:36;97485.94009021408;;;10.53215838864729;78.26222629129472
71642;BME280;60657;50.122;14.468;2022-12-24T05:15:49;97494.16789004178;;;10.564202334630352;77.62134737163348
71642;BME280;60657;50.122;14.468;2022-12-24T05:19:02;97497.45911490038;;;10.550850690470739;77.69573510337987
71642;BME280;60657;50.122;14.468;2022-12-24T05:22:14;97497.45911490038;;;10.614938582436864;77.48020141908904
71642;BME280;60657;50.122;14.468;2022-12-24T05:25:28;97496.614316947;;;10.585564965285727;77.01861600671397
71642;BME280;60657;50.122;14.468;2022-12-24T05:28:47;97503.3279103925;;;10.572213321126114;76.69436179140916
71642;BME280;60657;50.122;14.468;2022-12-24T05:32:00;97500.83766906324;;;10.577553978789958;76.42732890821698
71642;BME280;60657;50.122;14.468;2022-12-24T05:35:13;97504.21520307762;;;10.417334248874646;75.90089265278095
71642;BME280;60657;50.122;14.468;2022-12-24T05:38:25;97500.8807909337;;;10.542839703974977;75.12649729152362
71642;BME280;60657;50.122;14.468;2022-12-24T05:41:38;97505.77492424965;;;10.56687266346227;75.33058670939192
71642;BME280;60657;50.122;14.468;2022-12-24T05:44:50;97504.21520307762;;;10.478751812008852;75.04829480430304
71642;BME280;60657;50.122;14.468;2022-12-24T05:48:03;97499.32017987935;;;10.417334248874646;74.50469214923324
71642;BME280;60657;50.122;14.468;2022-12-24T05:51:16;97515.94677662295;;;10.355916685740446;74.23956664377813
71642;BME280;60657;50.122;14.468;2022-12-24T05:54:31;97505.98765424176;;;10.398641947051196;74.38261997405966
71642;BME280;60657;50.122;14.468;2022-12-24T05:57:43;97505.26779603267;;;10.329213397421228;74.25673304341191
71642;BME280;60657;50.122;14.468;2022-12-24T06:00:56;97516.16833930467;;;10.23308155947204;74.3330281528954
71642;BME280;60657;50.122;14.468;2022-12-24T06:04:08;97529.43733072701;;;10.283817807278552;73.72075989929046
71642;BME280;60657;50.122;14.468;2022-12-24T06:07:21;97518.65748148058;;;10.270466163118947;73.53955901426718
71642;BME280;60657;50.122;14.468;2022-12-24T06:10:33;97523.69387909603;;;10.206378271152822;73.57770656900892
71642;BME280;60657;50.122;14.468;2022-12-24T06:13:46;97522.10468458172;;;10.163653009842072;72.98451209277485
71642;BME280;60657;50.122;14.468;2022-12-24T06:16:58;97534.52977387863;;;10.142290379186697;73.19623102159152
71642;BME280;60657;50.122;14.468;2022-12-24T06:20:11;97522.96573091573;;;10.126268406195166;73.11612115663387
71642;BME280;60657;50.122;14.468;2022-12-24T06:23:24;97540.36795873521;;;10.182345311665522;73.02265964751659
71642;BME280;60657;50.122;14.468;2022-12-24T06:26:37;97551.9881321101;;;10.155642023346303;72.61257343404287
71642;BME280;60657;50.122;14.468;2022-12-24T06:29:52;97545.32702149863;;;10.19035629816129;72.41802090486
71642;BME280;60657;50.122;14.468;2022-12-24T06:33:04;97561.90697987494;;;10.171663996337834;72.18913557640956
71642;BME280;60657;50.122;14.468;2022-12-24T06:36:17;97566.88468146752;;;10.187685969329365;72.56679636835278
71642;BME280;60657;50.122;14.468;2022-12-24T06:39:32;97566.92050899762;;;10.177004654001678;72.15098802166781
71642;BME280;60657;50.122;14.468;2022-12-24T06:42:49;97561.90697987494;;;10.179674982833603;72.02891584649424
71642;BME280;60657;50.122;14.468;2022-12-24T06:46:02;97586.0583391557;;;10.06485084306096;71.59021896696422
71642;BME280;60657;50.122;14.468;2022-12-24T06:49:15;97588.51265284386;;;10.142290379186697;71.84390020599679
71642;BME280;60657;50.122;14.468;2022-12-24T06:52:27;97604.28551840849;;;10.118257419699397;71.58640421149005
71642;BME280;60657;50.122;14.468;2022-12-24T06:55:40;97592.75049053489;;;10.014114595254448;71.70275425345235
71642;BME280;60657;50.122;14.468;2022-12-24T06:58:52;97605.17595106357;;;10.099565117875947;71.42618448157474
71642;BME280;60657;50.122;14.468;2022-12-24T07:02:05;97611.00937718533;;;10.030136568245979;71.42809185931182
71642;BME280;60657;50.122;14.468;2022-12-24T07:05:17;97624.32256091535;;;9.99809262226291;71.44335088120852
71642;BME280;60657;50.122;14.468;2022-12-24T07:08:30;97635.90847022191;;;9.995422293430991;71.0180056458381
71642;BME280;60657;50.122;14.468;2022-12-24T07:11:43;97652.47193349239;;;10.024795910582135;71.06187533379111
71642;BME280;60657;50.122;14.468;2022-12-24T07:14:55;97644.16689889053;;;10.067521171892885;71.29648279545282
71642;BME280;60657;50.122;14.468;2022-12-24T07:18:08;97664.9585466114;;;9.99809262226291;71.6665140764477
71642;BME280;60657;50.122;14.468;2022-12-24T07:21:20;97660.83600760496;;;9.992751964599066;71.89539940489814
71642;BME280;60657;50.122;14.468;2022-12-24T07:24:33;97678.2100031121;;;10.014114595254448;72.40657663843747
71642;BME280;60657;50.122;14.468;2022-12-24T07:27:45;97693.93634563938;;;10.016784924086366;71.9316395819028
71642;BME280;60657;50.122;14.468;2022-12-24T07:30:58;97686.38229279743;;;10.134279392690928;71.66079194323643
71642;BME280;60657;50.122;14.468;2022-12-24T07:34:11;97693.58414664486;;;10.334554055085071;71.33653772793164
71642;BME280;60657;50.122;14.468;2022-12-24T07:37:24;97707.53497848906;;;10.561532005798426;71.11146715495536
71642;BME280;60657;50.122;14.468;2022-12-24T07:40:37;97713.04449298221;;;10.865949492637519;70.22262912947281
71642;BME280;60657;50.122;14.468;2022-12-24T07:43:50;97713.79567609826;;;10.903334096284425;70.16922255283437
71642;BME280;60657;50.122;14.468;2022-12-24T07:47:04;97731.07143411928;;;11.044861524376287;69.92507820248721
71642;BME280;60657;50.122;14.468;2022-12-24T07:50:17;97734.90080915455;;;11.282520790417337;69.12397955291065
71642;BME280;60657;50.122;14.468;2022-12-24T07:53:30;97745.67811559538;;;11.215762569619287;69.31471732661936
71642;BME280;60657;50.122;14.468;2022-12-24T07:56:43;97737.14645254107;;;11.464103150988024;68.7348744945449
71642;BME280;60657;50.122;14.468;2022-12-24T07:59:55;97742.56601610896;;;11.824597543297472;68.04058899824521
71642;BME280;60657;50.122;14.468;2022-12-24T08:03:08;97743.96049308797;;;11.995498588540471;67.68009460593576
71642;BME280;60657;50.122;14.468;2022-12-24T08:06:27;97758.98083855925;;;11.899366750591284;67.69916838330663
71642;BME280;60657;50.122;14.468;2022-12-24T08:09:40;97768.34043416877;;;11.74982833600366;67.8212405584802
71642;BME280;60657;50.122;14.468;2022-12-24T08:12:52;97768.20685208745;;;11.795223926146335;67.53513389791715
71642;BME280;60657;50.122;14.468;2022-12-24T08:16:05;97775.02293461775;;;11.680399786373691;67.69726100556954
71642;BME280;60657;50.122;14.468;2022-12-24T08:19:18;97780.56527621236;;;11.210421911955443;69.21934843976501
71642;BME280;60657;50.122;14.468;2022-12-24T08:22:31;97767.70156376307;;;10.884641794460975;70.24551766231785
71642;BME280;60657;50.122;14.468;2022-12-24T08:25:44;97771.93002585824;;;10.873960479133288;70.72617685206379
71642;BME280;60657;50.122;14.468;2022-12-24T08:29:00;97771.23952226852;;;10.724422064545664;71.17441062027925
71642;BME280;60657;50.122;14.468;2022-12-24T08:32:14;97768.68151758683;;;10.807202258335238;71.06950484473946
71642;BME280;60657;50.122;14.468;2022-12-24T08:35:27;97771.9810815942;;;10.876630807965206;71.30411230640117
71642;BME280;60657;50.122;14.468;2022-12-24T08:38:39;97776.46105662611;;;11.295872434576943;70.39047837033647
71642;BME280;60657;50.122;14.468;2022-12-24T08:41:52;97781.15207372922;;;11.533531700617992;69.37575341420614
71642;BME280;60657;50.122;14.468;2022-12-24T08:45:05;97771.50403979605;;;11.90203707942321;68.4239719233997
71642;BME280;60657;50.122;14.468;2022-12-24T08:48:18;97774.42877150295;;;12.13168535896849;67.33104448004883
71642;BME280;60657;50.122;14.468;2022-12-24T08:51:32;97793.78436877485;;;11.904707408255128;68.11879148546578
71642;BME280;60657;50.122;14.468;2022-12-24T08:54:44;97786.38739061395;;;11.880674448767834;68.42969405661097
71642;BME280;60657;50.122;14.468;2022-12-24T08:57:57;97789.18957224376;;;11.643015182726785;68.72343022812238
71642;BME280;60657;50.122;14.468;2022-12-24T09:01:11;97802.8334237572;;;11.351949340047305;69.97848477912565
71642;BME280;60657;50.122;14.468;2022-12-24T09:04:26;97796.88112161569;;;11.418707560845348;69.71717402914473
71642;BME280;60657;50.122;14.468;2022-12-24T09:07:39;97799.2527218482;;;11.600289921416035;69.50545510032806
71642;BME280;60657;50.122;14.468;2022-12-24T09:10:51;97811.47491919773;;;11.80857557030594;68.92942702372778
71642;BME280;60657;50.122;14.468;2022-12-24T09:14:04;97805.34932365266;;;12.07026779583429;68.17792019531548
71642;BME280;60657;50.122;14.468;2022-12-24T09:17:23;97811.14351673849;;;11.992828259708553;68.43541618982223
71642;BME280;60657;50.122;14.468;2022-12-24T09:20:35;97818.63232678083;;;12.043564507515072;68.54413672083619
71642;BME280;60657;50.122;14.468;2022-12-24T09:23:48;97811.87635001107;;;12.064927138170447;68.5288776989395
71642;BME280;60657;50.122;14.468;2022-12-24T09:27:00;97817.62457808698;;;12.07026779583429;68.7348744945449
71642;BME280;60657;50.122;14.468;2022-12-24T09:30:14;97827.37710460887;;;12.267872129396508;67.8212405584802
71642;BME280;60657;50.122;14.468;2022-12-24T09:33:27;97838.96804415947;;;12.177080949111165;67.70870527199206
71642;BME280;60657;50.122;14.468;2022-12-24T09:36:41;97837.10120285106;;;12.313267719539176;67.35202563515679
71642;BME280;60657;50.122;14.468;2022-12-24T09:39:54;97851.14229365076;;;12.510872053101394;67.53513389791715
71642;BME280;60657;50.122;14.468;2022-12-24T09:43:10;97861.55808567411;;;12.668421454184788;66.25719081406882
71642;BME280;60657;50.122;14.468;2022-12-24T09:46:29;97863.71529065659;;;12.8900587472343;65.59533073929961
71642;BME280;60657;50.122;14.468;2022-12-24T09:49:48;97860.80165162095;;;13.08232242313268;64.86671244373235
71642;BME280;60657;50.122;14.468;2022-12-24T09:53:09;97856.27765582755;;;13.424124513618679;63.67650873579004
71642;BME280;60657;50.122;14.468;2022-12-24T09:56:30;97863.36492881684;;;13.51758602273594;63.03562981612879
71642;BME280;60657;50.122;14.468;2022-12-24T09:59:48;97859.72946130486;;;13.717860685130084;62.03807125963226
71642;BME280;60657;50.122;14.468;2022-12-24T10:03:05;97885.55256547176;;;13.725871671625846;61.8854810406653
71642;BME280;60657;50.122;14.468;2022-12-24T10:06:27;97886.34573627576;;;13.717860685130084;62.31845578698406
71642;BME280;60657;50.122;14.468;2022-12-24T10:09:51;97883.79758067781;;;14.153124284733352;61.16830701152057
71642;BME280;60657;50.122;14.468;2022-12-24T10:13:14;97876.81257812837;;;14.649805447470818;59.167467765316246
71642;BME280;60657;50.122;14.468;2022-12-24T10:16:44;97878.45946970241;;;14.516289005874725;58.92523079270619
71642;BME280;60657;50.122;14.468;2022-12-24T10:20:19;97889.05478683407;;;14.740596627756162;58.642938887617305
71642;BME280;60657;50.122;14.468;2022-12-24T10:23:45;97888.34112142696;;;14.593728542000456;58.9366750591287
71642;BME280;60657;50.122;14.468;2022-12-24T10:27:04;97890.92071729591;;;14.628442816815443;59.66529335469596
71642;BME280;60657;50.122;14.468;2022-12-24T10:30:23;97894.06558120385;;;14.991607537956817;58.173723964293885
71642;BME280;60657;50.122;14.468;2022-12-24T10:33:36;97897.98805804136;;;15.226596475165941;58.14320592050049
71642;BME280;60657;50.122;14.468;2022-12-24T10:36:53;97911.73887031265;;;14.970244907301442;57.70641641870756
71642;BME280;60657;50.122;14.468;2022-12-24T10:40:10;97888.48630284978;;;14.526970321202413;58.6734569314107
71642;BME280;60657;50.122;14.468;2022-12-24T10:43:30;97924.95469131292;;;13.830014496070802;60.53315022507057
71642;BME280;60657;50.122;14.468;2022-12-24T10:46:43;97929.1948077922;;;13.461509117265585;62.10864423590448
71642;BME280;60657;50.122;14.468;2022-12-24T10:50:00;97935.42175249138;;;13.255893797207598;62.7819485770962
71642;BME280;60657;50.122;14.468;2022-12-24T10:53:26;97934.8702993742;;;13.183794918745711;63.15770199130236
71642;BME280;60657;50.122;14.468;2022-12-24T10:56:50;97941.68152274653;;;13.093003738460368;63.9015793087663
71642;BME280;60657;50.122;14.468;2022-12-24T11:00:17;97940.26456850975;;;13.028915846494243;64.63401235980774
71642;BME280;60657;50.122;14.468;2022-12-24T11:03:32;97944.64026761886;;;12.876707103074693;64.95635919737545
71642;BME280;60657;50.122;14.468;2022-12-24T11:06:51;97932.94105142736;;;12.77790493629358;64.97161821927214
71642;BME280;60657;50.122;14.468;2022-12-24T11:10:06;97937.31248410954;;;12.748531319142444;65.04409857328146
71642;BME280;60657;50.122;14.468;2022-12-24T11:13:21;97938.42221217716;;;12.53223468375677;66.02830548561838
71642;BME280;60657;50.122;14.468;2022-12-24T11:16:38;97949.5990839148;;;12.278553444724196;67.01251239795529
71642;BME280;60657;50.122;14.468;2022-12-24T11:19:51;97949.00596591835;;;12.161058976119634;67.4092469672694
71642;BME280;60657;50.122;14.468;2022-12-24T11:23:04;97953.31627183499;;;11.963454642557409;67.9375906004425
71642;BME280;60657;50.122;14.468;2022-12-24T11:26:20;97960.7867214623;;;12.091630426489665;68.34767681391622
71642;BME280;60657;50.122;14.468;2022-12-24T11:29:34;97969.20009026585;;;12.008850232700084;68.50598916609445
71642;BME280;60657;50.122;14.468;2022-12-24T11:32:47;97980.9319643002;;;11.926070038910503;69.01716639963378
71642;BME280;60657;50.122;14.468;2022-12-24T11:36:03;97984.32763304545;;;11.97947661554894;68.83024338139926
71642;BME280;60657;50.122;14.468;2022-12-24T11:39:24;97987.84404618593;;;11.739147020675972;70.00709544518196
71642;BME280;60657;50.122;14.468;2022-12-24T11:42:37;97989.69660689514;;;11.594949263752191;71.46433203631648
71642;BME280;60657;50.122;14.468;2022-12-24T11:45:51;97989.01249315418;;;11.397344930189973;72.91203173876555
71642;BME280;60657;50.122;14.468;2022-12-24T11:49:15;97986.56423744313;;;11.394674601358055;73.19050888838025